Terminal Aerodrome Forecast
Issued by NWS Jackson, MS

Home | Current Version | Previous Version | Text Only | Print | Product List | Glossary On
Versions: 1 2 3 4 5 6 7 8 9 10 11 12 13 14 15 16
000
FTUS44 KJAN 291936 AAA
TAFGWO
TAF AMD
KGWO 291936Z 2920/3018 27003G15KT 3/4SM +TSRA BKN029 BKN040
      BKN050CB
     FM292100 18006KT P6SM BKN040
     FM300300 17006KT P6SM OVC100
     FM300900 18005KT P6SM OVC015
     FM301600 21010KT P6SM OVC050=

USA.gov is the U.S. government's official web portal to all federal, state and local government web resources and services.